Time;durP1;ratioP1;P1;durP2;ratioP2;P2;SDS_P1;SDS_P2;PMS_P1;PMS_P2;Temp;Humidity;BMP_temperature;BMP_pressure;BME280_temperature;BME280_humidity;BME280_pressure;Samples;Min_cycle;Max_cycle;Signal;HPM_P1;HPM_P2
2023/05/08 00:00:22;;;;;;;17.50;11.43;;;12.20;99.90;;;;;;5003960;28;20085;-76
2023/05/08 00:02:48;;;;;;;14.52;11.20;;;12.20;99.90;;;;;;4989063;28;20058;-76
2023/05/08 00:05:14;;;;;;;16.10;11.38;;;12.30;99.90;;;;;;5005251;28;20137;-76
2023/05/08 00:07:40;;;;;;;15.95;11.70;;;12.10;99.90;;;;;;5004200;28;20491;-75
2023/05/08 00:10:07;;;;;;;15.50;10.68;;;12.10;99.90;;;;;;4988732;28;20057;-76
2023/05/08 00:12:33;;;;;;;17.00;11.88;;;12.10;99.90;;;;;;5005550;28;20046;-76
2023/05/08 00:14:59;;;;;;;15.02;11.55;;;12.50;99.90;;;;;;5004927;28;20208;-76
2023/05/08 00:17:25;;;;;;;16.17;10.65;;;12.10;99.90;;;;;;5005609;28;20125;-76
2023/05/08 00:19:51;;;;;;;15.55;11.60;;;12.00;99.90;;;;;;4988148;28;20561;-76
2023/05/08 00:22:18;;;;;;;14.15;10.75;;;12.00;99.90;;;;;;4997928;28;20137;-76
2023/05/08 00:24:44;;;;;;;14.07;11.02;;;12.00;99.90;;;;;;5001485;28;20048;-76
2023/05/08 00:27:10;;;;;;;15.35;11.38;;;12.00;99.90;;;;;;4992457;28;20470;-76
2023/05/08 00:29:36;;;;;;;16.13;11.27;;;12.00;99.90;;;;;;4996121;28;20046;-76
2023/05/08 00:32:01;;;;;;;15.25;10.90;;;11.90;99.90;;;;;;4984295;28;20511;-76
2023/05/08 00:34:27;;;;;;;15.23;11.55;;;11.90;99.90;;;;;;4994671;28;20046;-77
2023/05/08 00:36:55;;;;;;;14.85;11.43;;;11.90;99.90;;;;;;4999471;28;20517;-76
2023/05/08 00:39:20;;;;;;;16.02;11.25;;;11.90;99.90;;;;;;5003732;28;20188;-76
2023/05/08 00:41:46;;;;;;;14.45;11.23;;;11.80;99.90;;;;;;4998510;28;20159;-76
2023/05/08 00:44:12;;;;;;;15.07;11.68;;;11.80;99.90;;;;;;4985630;28;20050;-75
2023/05/08 00:46:39;;;;;;;14.73;11.63;;;11.80;99.90;;;;;;4986076;28;20046;-75
2023/05/08 00:49:05;;;;;;;14.70;11.43;;;11.80;99.90;;;;;;4977613;28;20038;-75
2023/05/08 00:51:31;;;;;;;17.42;12.32;;;11.70;99.90;;;;;;4992442;28;20061;-75
2023/05/08 00:53:58;;;;;;;16.60;12.50;;;11.70;99.90;;;;;;4984934;28;20045;-75
2023/05/08 00:56:27;;;;;;;17.25;13.07;;;11.70;99.90;;;;;;4997104;28;20117;-76
2023/05/08 00:58:53;;;;;;;15.38;12.00;;;11.60;99.90;;;;;;5004190;28;20659;-76
2023/05/08 01:01:19;;;;;;;18.95;12.30;;;11.60;99.90;;;;;;4992403;28;20599;-76
2023/05/08 01:03:45;;;;;;;15.95;11.90;;;11.60;99.90;;;;;;5008138;28;20046;-76
2023/05/08 01:06:11;;;;;;;16.63;12.18;;;11.50;99.90;;;;;;4992625;28;20408;-76
2023/05/08 01:08:37;;;;;;;16.35;12.38;;;11.50;99.90;;;;;;5010136;28;20046;-76
2023/05/08 01:11:22;;;;;;;16.17;11.73;;;11.50;99.90;;;;;;4993724;28;20042;-77
2023/05/08 01:13:51;;;;;;;17.40;12.45;;;11.50;99.90;;;;;;5008978;28;20774;-77
2023/05/08 01:17:01;;;;;;;16.02;12.43;;;11.50;99.90;;;;;;5010371;28;20073;-77
2023/05/08 01:20:03;;;;;;;17.63;13.10;;;11.50;99.90;;;;;;4990016;28;20061;-77
2023/05/08 01:22:54;;;;;;;18.67;13.23;;;11.50;99.90;;;;;;4990678;28;20056;-77
2023/05/08 01:25:42;;;;;;;16.52;12.65;;;11.40;99.90;;;;;;5008397;28;20042;-76
2023/05/08 01:28:17;;;;;;;18.98;13.52;;;11.40;99.90;;;;;;4990420;28;20570;-76
2023/05/08 01:31:03;;;;;;;18.02;12.25;;;11.30;99.90;;;;;;5001302;28;20413;-76
2023/05/08 01:33:42;;;;;;;17.50;13.15;;;11.30;99.90;;;;;;5000254;28;20077;-77
2023/05/08 01:36:08;;;;;;;16.08;12.05;;;11.30;99.90;;;;;;4976163;28;20046;-76
2023/05/08 01:38:46;;;;;;;18.88;12.90;;;11.30;99.90;;;;;;5002240;28;20042;-76
2023/05/08 01:41:17;;;;;;;19.08;13.40;;;11.20;99.90;;;;;;4974376;28;20060;-76
2023/05/08 01:44:16;;;;;;;18.35;13.73;;;11.00;99.90;;;;;;4991459;28;20099;-76
2023/05/08 01:46:46;;;;;;;19.45;13.50;;;11.20;99.90;;;;;;4993618;28;20100;-77
2023/05/08 01:49:22;;;;;;;16.92;12.80;;;11.10;99.90;;;;;;5003869;28;20089;-76
2023/05/08 01:51:57;;;;;;;17.90;13.38;;;11.10;99.90;;;;;;5002121;28;20569;-76
2023/05/08 01:54:26;;;;;;;18.05;14.02;;;11.10;99.90;;;;;;4979910;28;20053;-76
2023/05/08 01:56:54;;;;;;;18.83;13.80;;;11.00;99.90;;;;;;4989380;28;20050;-78
2023/05/08 01:59:22;;;;;;;17.85;13.63;;;11.00;99.90;;;;;;4999008;28;20096;-78
2023/05/08 02:01:51;;;;;;;17.63;13.65;;;11.00;99.90;;;;;;4987615;28;20550;-78
2023/05/08 02:04:18;;;;;;;18.33;14.55;;;11.00;99.90;;;;;;4994267;28;20490;-78
2023/05/08 02:06:44;;;;;;;17.52;13.52;;;11.00;99.90;;;;;;5005397;28;20495;-77
2023/05/08 02:09:11;;;;;;;17.70;13.00;;;11.00;99.90;;;;;;5007771;28;20045;-78
2023/05/08 02:11:40;;;;;;;19.83;14.65;;;10.70;99.90;;;;;;4993903;28;20400;-77
2023/05/08 02:14:07;;;;;;;18.25;14.30;;;11.00;99.90;;;;;;5007642;28;20157;-78
2023/05/08 02:16:35;;;;;;;19.13;14.32;;;10.90;99.90;;;;;;4999564;28;20046;-78
2023/05/08 02:19:03;;;;;;;19.48;14.95;;;10.90;99.90;;;;;;5007308;28;20077;-78
2023/05/08 02:21:30;;;;;;;18.08;13.45;;;10.90;99.90;;;;;;4976516;28;20172;-77
2023/05/08 02:23:57;;;;;;;17.92;13.55;;;10.90;99.90;;;;;;5023343;28;20053;-77
2023/05/08 02:26:24;;;;;;;18.67;13.90;;;10.90;99.90;;;;;;4997996;28;20137;-77
2023/05/08 02:28:53;;;;;;;18.88;13.65;;;10.80;99.90;;;;;;4987201;28;20088;-77
2023/05/08 02:31:20;;;;;;;16.58;13.20;;;10.80;99.90;;;;;;4989022;28;20058;-78
2023/05/08 02:33:48;;;;;;;19.23;14.40;;;10.80;99.90;;;;;;4998899;28;20075;-78
2023/05/08 02:36:17;;;;;;;22.92;14.82;;;10.80;99.90;;;;;;5007949;28;20042;-77
2023/05/08 02:38:54;;;;;;;18.60;14.27;;;10.80;99.90;;;;;;5005615;28;20128;-78
2023/05/08 02:41:24;;;;;;;19.10;14.57;;;10.70;99.90;;;;;;4999940;28;20081;-77
2023/05/08 02:43:53;;;;;;;18.48;13.48;;;10.70;99.90;;;;;;5007350;28;20057;-77
2023/05/08 02:46:45;;;;;;;17.77;13.70;;;10.70;99.90;;;;;;4990483;28;20129;-78
2023/05/08 02:49:34;;;;;;;20.85;15.18;;;10.70;99.90;;;;;;5014334;28;20060;-78
2023/05/08 02:52:17;;;;;;;20.52;14.85;;;10.70;99.90;;;;;;4979808;28;20085;-76
2023/05/08 02:54:55;;;;;;;19.13;14.35;;;10.70;99.90;;;;;;5006300;28;20041;-77
2023/05/08 02:57:30;;;;;;;22.80;15.45;;;10.70;99.90;;;;;;4984925;28;20062;-77
2023/05/08 03:00:03;;;;;;;19.05;15.13;;;10.60;99.90;;;;;;4990489;28;20046;-77
2023/05/08 03:02:38;;;;;;;18.40;14.55;;;10.60;99.90;;;;;;4996667;28;20110;-78
2023/05/08 03:05:17;;;;;;;19.13;14.05;;;10.60;99.90;;;;;;4979609;28;20053;-78
2023/05/08 03:07:46;;;;;;;19.17;14.93;;;10.60;99.90;;;;;;4989183;28;20077;-77
2023/05/08 03:10:14;;;;;;;18.80;14.20;;;10.60;99.90;;;;;;5005951;28;20175;-78
2023/05/08 03:12:44;;;;;;;19.25;14.68;;;10.60;99.90;;;;;;4989980;28;20104;-78
2023/05/08 03:15:30;;;;;;;18.02;14.02;;;10.50;99.90;;;;;;5005479;28;20112;-78
2023/05/08 03:18:01;;;;;;;19.80;14.90;;;10.50;99.90;;;;;;4988141;28;20061;-78
2023/05/08 03:20:32;;;;;;;23.42;16.40;;;10.40;99.90;;;;;;5007410;28;20056;-79
2023/05/08 03:22:59;;;;;;;;;;;10.40;99.90;;;;;;4988990;28;20053;-78
2023/05/08 03:25:26;;;;;;;24.13;15.10;;;10.40;99.90;;;;;;4987351;28;20302;-79
2023/05/08 03:27:52;;;;;;;20.92;15.48;;;10.40;99.90;;;;;;4997614;28;20042;-78
2023/05/08 03:30:19;;;;;;;19.63;14.70;;;10.40;99.90;;;;;;4991754;28;20045;-77
2023/05/08 03:32:46;;;;;;;20.05;15.23;;;10.40;99.90;;;;;;4989971;28;20066;-78
2023/05/08 03:35:14;;;;;;;20.58;15.32;;;10.30;99.90;;;;;;4987345;28;20042;-78
2023/05/08 03:37:41;;;;;;;19.45;14.68;;;10.30;99.90;;;;;;4983601;28;20056;-78
2023/05/08 03:40:08;;;;;;;19.30;14.35;;;10.30;99.90;;;;;;5003079;28;20044;-76
2023/05/08 03:42:34;;;;;;;19.55;14.32;;;10.20;99.90;;;;;;5002775;28;20057;-78
2023/05/08 03:45:02;;;;;;;19.65;15.05;;;10.20;99.90;;;;;;4981930;28;20416;-78
2023/05/08 03:47:29;;;;;;;21.58;14.73;;;10.20;99.90;;;;;;4998525;28;20048;-79
2023/05/08 03:49:56;;;;;;;22.25;15.05;;;10.10;99.90;;;;;;4986335;28;20061;-79
2023/05/08 03:52:23;;;;;;;19.20;14.90;;;10.10;99.90;;;;;;5001781;28;20049;-77
2023/05/08 03:54:49;;;;;;;21.10;15.80;;;10.10;99.90;;;;;;5004664;28;20049;-77
2023/05/08 03:57:15;;;;;;;20.33;14.70;;;10.10;99.90;;;;;;4996266;28;20049;-78
2023/05/08 04:00:05;;;;;;;20.92;15.32;;;10.10;99.90;;;;;;4991330;28;20760;-79
2023/05/08 04:02:46;;;;;;;19.40;14.50;;;10.00;99.90;;;;;;4997871;28;20105;-79
2023/05/08 04:05:39;;;;;;;19.50;14.45;;;10.00;99.90;;;;;;4996470;28;20057;-79
2023/05/08 04:08:28;;;;;;;19.50;14.85;;;10.00;99.90;;;;;;4990869;28;20181;-77
2023/05/08 04:11:08;;;;;;;22.10;15.27;;;10.00;99.90;;;;;;4994746;28;20132;-77
2023/05/08 04:13:42;;;;;;;19.90;15.02;;;10.00;99.90;;;;;;4994040;28;20097;-79
2023/05/08 04:16:25;;;;;;;18.92;14.63;;;9.90;99.90;;;;;;5000187;28;20129;-79
2023/05/08 04:18:58;;;;;;;22.17;14.93;;;9.90;99.90;;;;;;4994999;28;21743;-79
2023/05/08 04:21:25;;;;;;;19.40;15.18;;;9.90;99.90;;;;;;5000473;28;20136;-78
2023/05/08 04:23:52;;;;;;;22.70;15.13;;;9.90;99.90;;;;;;4984451;28;20038;-78
2023/05/08 04:26:18;;;;;;;21.42;14.60;;;9.80;99.90;;;;;;4982377;28;20526;-78
2023/05/08 04:28:47;;;;;;;19.98;15.07;;;9.90;99.90;;;;;;4981389;28;20061;-80
2023/05/08 04:31:17;;;;;;;19.60;14.68;;;9.90;99.90;;;;;;4981667;28;20050;-79
2023/05/08 04:33:44;;;;;;;21.63;15.07;;;9.90;99.90;;;;;;4968951;28;20141;-78
2023/05/08 04:36:13;;;;;;;21.05;15.27;;;9.90;99.90;;;;;;4981258;28;20614;-78
2023/05/08 04:38:40;;;;;;;20.83;14.40;;;10.10;99.90;;;;;;4972370;28;20127;-78
2023/05/08 04:41:07;;;;;;;19.55;14.30;;;10.20;99.90;;;;;;4970294;28;20057;-79
2023/05/08 04:43:34;;;;;;;18.38;13.43;;;10.30;99.90;;;;;;4973905;28;20272;-78
2023/05/08 04:46:00;;;;;;;16.55;12.80;;;10.40;99.90;;;;;;4988150;28;20072;-78
2023/05/08 04:48:26;;;;;;;16.40;12.73;;;10.50;99.90;;;;;;4989610;28;20104;-79
2023/05/08 04:50:52;;;;;;;16.52;12.30;;;10.70;99.90;;;;;;4987919;28;20084;-78
2023/05/08 04:53:17;;;;;;;16.13;12.07;;;10.80;99.90;;;;;;4975867;28;20746;-78
2023/05/08 04:55:43;;;;;;;16.17;11.88;;;11.00;99.90;;;;;;4976854;28;20264;-79
2023/05/08 04:58:12;;;;;;;17.38;11.85;;;11.10;99.90;;;;;;4976183;28;20109;-79
2023/05/08 05:00:37;;;;;;;14.50;11.07;;;11.30;99.90;;;;;;4977234;28;20077;-79
2023/05/08 05:03:04;;;;;;;13.57;10.90;;;11.50;99.90;;;;;;4969816;28;20150;-79
2023/05/08 05:05:30;;;;;;;14.25;11.20;;;11.60;99.90;;;;;;4979188;28;20058;-80
2023/05/08 05:07:55;;;;;;;13.18;10.32;;;11.80;99.90;;;;;;4993449;28;20066;-79
2023/05/08 05:10:21;;;;;;;12.52;10.38;;;12.10;99.90;;;;;;4991951;28;20549;-78
2023/05/08 05:12:47;;;;;;;13.20;10.80;;;12.20;99.90;;;;;;4977803;28;20042;-79
2023/05/08 05:15:13;;;;;;;13.35;9.52;;;12.30;99.90;;;;;;4996409;28;20041;-80
2023/05/08 05:17:38;;;;;;;14.82;10.38;;;12.40;99.90;;;;;;4994519;28;20053;-80
2023/05/08 05:20:06;;;;;;;13.90;9.52;;;12.50;99.90;;;;;;4986448;28;20069;-80
2023/05/08 05:22:32;;;;;;;12.23;9.50;;;12.70;99.90;;;;;;4981906;28;20049;-81
2023/05/08 05:24:57;;;;;;;11.65;8.88;;;13.10;99.90;;;;;;4998580;28;20546;-80
2023/05/08 05:27:23;;;;;;;12.27;9.50;;;12.80;99.90;;;;;;4999829;28;20046;-80
2023/05/08 05:29:49;;;;;;;13.05;9.32;;;12.80;99.90;;;;;;4992047;28;20395;-81
2023/05/08 05:32:15;;;;;;;13.73;9.43;;;12.80;99.90;;;;;;4995192;28;20804;-81
2023/05/08 05:34:41;;;;;;;12.80;9.20;;;12.70;99.90;;;;;;4996383;28;20049;-81
2023/05/08 05:37:07;;;;;;;12.48;9.48;;;12.60;99.90;;;;;;4995300;28;20042;-80
2023/05/08 05:39:32;;;;;;;11.65;8.93;;;12.60;99.90;;;;;;4997655;28;20406;-80
2023/05/08 05:41:58;;;;;;;12.80;9.68;;;12.50;99.90;;;;;;4985112;28;20057;-80
2023/05/08 05:44:24;;;;;;;13.20;10.32;;;12.50;99.90;;;;;;5000539;28;20049;-80
2023/05/08 05:46:49;;;;;;;11.57;9.43;;;12.50;99.90;;;;;;5002327;28;20117;-80
2023/05/08 05:49:15;;;;;;;12.15;9.25;;;12.50;99.90;;;;;;5002375;28;20601;-75
2023/05/08 05:51:41;;;;;;;12.60;9.68;;;12.50;99.90;;;;;;5002107;28;20052;-76
2023/05/08 05:54:07;;;;;;;12.98;9.70;;;12.50;99.90;;;;;;5003519;28;20057;-76
2023/05/08 05:56:32;;;;;;;13.45;9.45;;;12.60;99.90;;;;;;4985088;28;20530;-75
2023/05/08 05:58:58;;;;;;;11.27;8.68;;;12.70;99.90;;;;;;5000999;28;20053;-75
2023/05/08 06:01:24;;;;;;;13.55;9.20;;;12.60;99.90;;;;;;5003270;28;20046;-76
2023/05/08 06:03:50;;;;;;;12.80;9.23;;;12.70;99.90;;;;;;5004424;28;20403;-77
2023/05/08 06:06:16;;;;;;;11.85;9.52;;;12.60;99.90;;;;;;5001765;28;20089;-75
2023/05/08 06:08:42;;;;;;;13.40;9.93;;;12.50;99.90;;;;;;5001529;28;20057;-76
2023/05/08 06:11:07;;;;;;;12.75;9.13;;;12.40;99.90;;;;;;5005217;28;20038;-74
2023/05/08 06:13:33;;;;;;;11.90;9.25;;;12.30;99.90;;;;;;5001944;28;20038;-73
2023/05/08 06:15:59;;;;;;;12.77;9.82;;;12.20;99.90;;;;;;5002150;28;20034;-76
2023/05/08 06:18:25;;;;;;;13.05;8.90;;;12.20;99.90;;;;;;4998885;28;20050;-76
2023/05/08 06:20:57;;;;;;;12.35;9.32;;;12.20;99.90;;;;;;5000508;28;20054;-75
2023/05/08 06:23:23;;;;;;;12.00;8.88;;;12.20;99.90;;;;;;5001195;28;20053;-76
2023/05/08 06:25:49;;;;;;;14.00;10.23;;;12.10;99.90;;;;;;5000899;28;20046;-76
2023/05/08 06:28:15;;;;;;;11.68;9.23;;;12.10;99.90;;;;;;4998503;28;20083;-79
2023/05/08 06:30:40;;;;;;;14.70;10.10;;;12.10;99.90;;;;;;4998153;28;20049;-83
2023/05/08 06:33:07;;;;;;;12.38;9.70;;;12.10;99.90;;;;;;4996599;28;20100;-80
2023/05/08 06:35:36;;;;;;;13.43;9.65;;;12.10;99.90;;;;;;4985781;28;20045;-80
2023/05/08 06:38:02;;;;;;;13.93;10.27;;;12.10;99.90;;;;;;4985729;28;20050;-79
2023/05/08 06:40:28;;;;;;;13.55;9.68;;;12.10;99.90;;;;;;4996399;28;20049;-80
2023/05/08 06:42:53;;;;;;;13.20;10.20;;;12.10;99.90;;;;;;4998257;28;20117;-80
2023/05/08 06:45:19;;;;;;;14.35;10.45;;;12.10;99.90;;;;;;4997628;28;20107;-82
2023/05/08 06:47:45;;;;;;;12.50;9.50;;;12.20;99.90;;;;;;4999371;28;20104;-79
2023/05/08 06:50:11;;;;;;;12.82;9.85;;;12.20;99.90;;;;;;4996448;28;20092;-82
2023/05/08 06:52:36;;;;;;;14.90;10.73;;;12.20;99.90;;;;;;4996647;28;20042;-80
2023/05/08 06:55:02;;;;;;;13.07;9.68;;;12.30;99.90;;;;;;4981828;28;20041;-81
2023/05/08 06:57:29;;;;;;;11.95;9.35;;;12.30;99.90;;;;;;4982778;28;20072;-81
2023/05/08 06:59:55;;;;;;;13.90;10.15;;;12.30;99.90;;;;;;4980730;28;20053;-80
2023/05/08 07:02:21;;;;;;;13.00;9.38;;;12.40;99.90;;;;;;4994537;28;20054;-81
2023/05/08 07:04:47;;;;;;;12.52;9.43;;;12.40;99.90;;;;;;4993431;28;20053;-81
2023/05/08 07:07:14;;;;;;;13.55;10.45;;;12.40;99.90;;;;;;4999486;28;20049;-80
2023/05/08 07:09:40;;;;;;;13.15;9.82;;;12.50;99.90;;;;;;4995828;28;20099;-81
2023/05/08 07:12:05;;;;;;;12.93;10.43;;;12.50;99.90;;;;;;4997371;28;20049;-80
2023/05/08 07:14:31;;;;;;;14.38;10.60;;;12.60;99.90;;;;;;4979788;28;20053;-80
2023/05/08 07:16:57;;;;;;;15.43;11.02;;;12.50;99.90;;;;;;4981089;28;20056;-81
2023/05/08 07:19:23;;;;;;;12.23;9.55;;;12.60;99.90;;;;;;4997312;28;20104;-81
2023/05/08 07:21:49;;;;;;;14.50;10.85;;;12.60;99.90;;;;;;5001078;28;20462;-81
2023/05/08 07:24:15;;;;;;;16.48;11.25;;;12.70;99.90;;;;;;4999294;28;20075;-83
2023/05/08 07:26:41;;;;;;;15.27;11.07;;;12.70;99.90;;;;;;5001404;28;20050;-81
2023/05/08 07:29:07;;;;;;;16.35;10.93;;;12.70;99.90;;;;;;5000014;28;20085;-82
2023/05/08 07:31:32;;;;;;;12.88;10.00;;;12.80;99.90;;;;;;4997591;28;20404;-81
2023/05/08 07:33:58;;;;;;;16.13;10.90;;;12.80;99.90;;;;;;4999356;28;20049;-81
2023/05/08 07:36:24;;;;;;;17.30;10.80;;;13.20;99.90;;;;;;4999966;28;20099;-82
2023/05/08 07:38:50;;;;;;;14.02;11.32;;;12.90;99.90;;;;;;5000210;28;20052;-83
2023/05/08 07:41:15;;;;;;;13.07;10.68;;;13.00;99.90;;;;;;5003256;28;20057;-82
2023/05/08 07:43:42;;;;;;;14.07;10.30;;;13.10;99.90;;;;;;5001550;28;20050;-83
2023/05/08 07:46:14;;;;;;;22.00;12.63;;;13.10;99.90;;;;;;5002543;28;20057;-82
2023/05/08 07:48:40;;;;;;;17.77;11.18;;;13.20;99.90;;;;;;4998651;28;20050;-82
2023/05/08 07:51:06;;;;;;;14.20;9.80;;;13.30;99.90;;;;;;5001230;28;20104;-82
2023/05/08 07:53:31;;;;;;;15.27;10.73;;;13.30;99.90;;;;;;5001786;28;20475;-83
2023/05/08 07:55:57;;;;;;;11.93;9.93;;;13.40;99.90;;;;;;5002503;28;20045;-82
2023/05/08 07:58:23;;;;;;;14.00;11.05;;;13.60;99.90;;;;;;5002206;28;20034;-82
2023/05/08 08:00:49;;;;;;;14.20;10.93;;;13.60;99.90;;;;;;4985300;28;20037;-82
2023/05/08 08:03:14;;;;;;;13.85;10.50;;;13.70;99.90;;;;;;4983136;28;20935;-82
2023/05/08 08:05:41;;;;;;;12.30;10.02;;;13.70;99.90;;;;;;4983254;28;20061;-80
2023/05/08 08:08:06;;;;;;;12.95;10.63;;;13.80;99.90;;;;;;5001315;28;20069;-84
2023/05/08 08:10:32;;;;;;;12.63;9.90;;;13.90;99.90;;;;;;5003909;28;20046;-84
2023/05/08 08:13:00;;;;;;;12.38;10.35;;;14.00;99.90;;;;;;5001803;28;20133;-82
2023/05/08 08:15:29;;;;;;;12.20;9.98;;;14.10;99.90;;;;;;4982661;28;20546;-83
2023/05/08 08:17:55;;;;;;;13.35;10.15;;;14.10;99.90;;;;;;5002586;28;20041;-82
2023/05/08 08:20:21;;;;;;;11.93;9.48;;;14.30;99.90;;;;;;4981614;28;20073;-83
2023/05/08 08:22:47;;;;;;;12.68;10.40;;;14.30;99.90;;;;;;5001075;28;20056;-83
2023/05/08 08:25:13;;;;;;;14.00;10.75;;;14.40;99.90;;;;;;4986132;28;20045;-82
2023/05/08 08:27:39;;;;;;;12.40;9.73;;;14.50;99.90;;;;;;4985476;28;20097;-82
2023/05/08 08:30:05;;;;;;;12.80;10.38;;;14.50;99.90;;;;;;5001361;28;20648;-83
2023/05/08 08:32:31;;;;;;;11.77;10.15;;;14.50;99.90;;;;;;5001800;28;20418;-83
2023/05/08 08:34:56;;;;;;;12.77;10.73;;;14.60;99.90;;;;;;5001801;28;20119;-83
2023/05/08 08:37:23;;;;;;;12.60;9.88;;;14.60;99.90;;;;;;5002642;28;20042;-75
2023/05/08 08:39:48;;;;;;;16.80;10.13;;;14.60;99.90;;;;;;5002360;28;20045;-73
2023/05/08 08:42:14;;;;;;;14.20;10.32;;;14.70;99.90;;;;;;4983206;28;20042;-74
2023/05/08 08:44:40;;;;;;;13.40;10.70;;;14.70;99.90;;;;;;4984470;28;20049;-74
2023/05/08 08:47:09;;;;;;;13.85;10.68;;;14.80;99.90;;;;;;5001763;28;20054;-74
2023/05/08 08:49:45;;;;;;;11.85;9.38;;;14.80;99.90;;;;;;5000207;28;20363;-75
2023/05/08 08:52:25;;;;;;;12.75;10.05;;;14.90;99.90;;;;;;5001530;28;20146;-75
2023/05/08 08:54:54;;;;;;;12.20;10.02;;;14.90;99.90;;;;;;4984835;28;20050;-76
2023/05/08 08:57:22;;;;;;;12.82;10.15;;;14.90;99.90;;;;;;4999025;28;20038;-73
2023/05/08 08:59:49;;;;;;;14.68;10.38;;;14.90;99.90;;;;;;4983212;28;20136;-75
2023/05/08 09:02:18;;;;;;;14.82;10.50;;;15.00;99.90;;;;;;4977234;28;20452;-76
2023/05/08 09:04:44;;;;;;;12.10;10.32;;;15.00;99.90;;;;;;5001376;28;20572;-75
2023/05/08 09:07:11;;;;;;;12.15;10.18;;;15.10;99.90;;;;;;4997348;28;20061;-74
2023/05/08 09:09:45;;;;;;;12.35;9.88;;;15.20;99.90;;;;;;4998372;28;20165;-75
2023/05/08 09:12:13;;;;;;;12.93;10.18;;;15.30;99.90;;;;;;4999263;28;20057;-75
2023/05/08 09:14:38;;;;;;;11.65;9.35;;;15.30;99.90;;;;;;4993528;28;20380;-74
2023/05/08 09:17:04;;;;;;;12.85;9.93;;;15.40;99.90;;;;;;4976655;28;20053;-74
2023/05/08 09:19:31;;;;;;;13.48;10.13;;;15.50;99.90;;;;;;4994439;28;20046;-75
2023/05/08 09:22:00;;;;;;;12.35;10.18;;;15.60;99.90;;;;;;4999674;28;20046;-75
2023/05/08 09:24:58;;;;;;;12.75;10.25;;;15.80;99.90;;;;;;5009163;28;20069;-75
2023/05/08 09:27:26;;;;;;;13.52;10.85;;;16.00;99.90;;;;;;5001168;28;20042;-73
2023/05/08 09:30:08;;;;;;;14.70;10.63;;;16.20;99.90;;;;;;4998941;28;20514;-74
2023/05/08 09:32:36;;;;;;;13.30;10.65;;;16.30;99.90;;;;;;4999640;28;20141;-73
2023/05/08 09:35:03;;;;;;;14.10;10.75;;;16.40;99.90;;;;;;4998505;28;20406;-73
2023/05/08 09:37:29;;;;;;;13.23;10.13;;;16.50;99.90;;;;;;5000918;28;20044;-74
2023/05/08 09:40:19;;;;;;;11.88;9.98;;;16.60;99.90;;;;;;4987517;28;20946;-74
2023/05/08 09:42:46;;;;;;;12.63;10.18;;;16.70;99.90;;;;;;5001123;28;20061;-75
2023/05/08 09:45:29;;;;;;;13.10;10.18;;;16.80;99.90;;;;;;4983597;28;20057;-74
2023/05/08 09:47:54;;;;;;;13.65;10.15;;;17.00;99.90;;;;;;4997607;28;20210;-73
2023/05/08 09:50:20;;;;;;;11.65;9.57;;;17.00;99.90;;;;;;4999541;28;20817;-74
2023/05/08 09:52:48;;;;;;;12.93;10.63;;;17.10;99.90;;;;;;4995987;28;20104;-74
2023/05/08 09:55:14;;;;;;;13.23;10.77;;;17.10;99.90;;;;;;4980094;28;20052;-74
2023/05/08 09:57:52;;;;;;;14.25;10.63;;;17.20;99.90;;;;;;5001887;28;20109;-73
2023/05/08 10:00:19;;;;;;;12.40;10.82;;;17.20;99.90;;;;;;5002887;28;20112;-73
2023/05/08 10:02:55;;;;;;;13.48;10.40;;;17.30;99.90;;;;;;4997108;28;20604;-74
2023/05/08 10:05:23;;;;;;;12.73;10.68;;;17.20;99.90;;;;;;4981612;28;20046;-72
2023/05/08 10:07:49;;;;;;;14.32;10.98;;;17.30;99.90;;;;;;5001914;28;20128;-73
2023/05/08 10:10:22;;;;;;;13.00;10.15;;;17.30;99.90;;;;;;5002340;28;20378;-73
2023/05/08 10:12:48;;;;;;;14.00;11.00;;;17.40;99.90;;;;;;5002989;28;20540;-73
2023/05/08 10:15:14;;;;;;;12.43;10.50;;;17.50;99.90;;;;;;5001733;28;20049;-74
2023/05/08 10:18:01;;;;;;;14.02;11.05;;;17.50;99.90;;;;;;4986728;28;20054;-74
2023/05/08 10:20:29;;;;;;;15.18;11.75;;;17.60;99.90;;;;;;5001930;28;20053;-74
2023/05/08 10:22:56;;;;;;;14.40;12.25;;;17.70;99.90;;;;;;5019063;28;20148;-74
2023/05/08 10:25:23;;;;;;;15.15;11.75;;;17.80;99.90;;;;;;5002399;28;20088;-73
2023/05/08 10:27:58;;;;;;;13.75;10.82;;;17.90;99.90;;;;;;5002235;28;20046;-73
2023/05/08 10:30:25;;;;;;;12.05;10.30;;;17.90;99.90;;;;;;5001842;28;20045;-72
2023/05/08 10:32:54;;;;;;;14.25;11.80;;;18.00;99.90;;;;;;4998597;28;20151;-74
2023/05/08 10:35:20;;;;;;;14.25;11.35;;;18.10;99.90;;;;;;5007042;28;20668;-74
2023/05/08 10:37:48;;;;;;;13.35;10.57;;;18.20;99.90;;;;;;4995877;28;20061;-74
2023/05/08 10:40:19;;;;;;;13.38;11.18;;;18.30;99.90;;;;;;4981000;28;20124;-74
2023/05/08 10:42:46;;;;;;;13.35;10.93;;;18.40;99.90;;;;;;4999862;28;20085;-73
2023/05/08 10:45:12;;;;;;;14.13;11.10;;;18.50;99.90;;;;;;5001310;28;20133;-73
2023/05/08 10:47:47;;;;;;;13.25;11.45;;;18.60;99.90;;;;;;4984884;28;20536;-74
2023/05/08 10:50:24;;;;;;;14.90;12.18;;;18.60;99.90;;;;;;5003199;28;20498;-74
2023/05/08 10:53:02;;;;;;;15.30;12.20;;;18.70;99.90;;;;;;5002118;28;20459;-73
2023/05/08 10:55:29;;;;;;;15.02;13.05;;;18.80;99.90;;;;;;4985644;28;20049;-74
2023/05/08 10:58:05;;;;;;;13.73;12.00;;;18.80;99.90;;;;;;4982946;28;20050;-73
2023/05/08 11:00:32;;;;;;;15.80;12.45;;;18.90;99.90;;;;;;4980284;28;20081;-73
2023/05/08 11:03:08;;;;;;;13.88;12.38;;;19.00;99.90;;;;;;4997276;28;20050;-73
2023/05/08 11:05:49;;;;;;;14.57;11.68;;;19.00;99.90;;;;;;5000850;28;20411;-80
2023/05/08 11:08:26;;;;;;;15.98;12.05;;;19.00;99.90;;;;;;5003620;28;20081;-81
2023/05/08 11:10:58;;;;;;;13.93;10.85;;;19.10;99.90;;;;;;4987124;28;20419;-81
2023/05/08 11:13:49;;;;;;;15.40;11.70;;;19.20;99.90;;;;;;4997429;28;20038;-79
2023/05/08 11:16:15;;;;;;;13.90;12.40;;;19.30;99.90;;;;;;4989142;28;20050;-80
2023/05/08 11:19:16;;;;;;;17.13;13.23;;;19.40;99.90;;;;;;4986544;28;20058;-80
2023/05/08 11:22:15;;;;;;;13.00;11.02;;;19.50;99.90;;;;;;4985590;28;20495;-80
2023/05/08 11:24:52;;;;;;;16.73;11.52;;;19.50;99.90;;;;;;4999896;28;20752;-73
2023/05/08 11:27:29;;;;;;;15.27;11.85;;;19.60;99.90;;;;;;5002442;28;20128;-72
2023/05/08 11:30:17;;;;;;;14.02;11.68;;;19.60;99.90;;;;;;5001228;28;20081;-73
2023/05/08 11:33:13;;;;;;;15.75;12.57;;;19.70;99.90;;;;;;4985228;28;20058;-74
2023/05/08 11:35:47;;;;;;;13.00;11.50;;;19.80;99.90;;;;;;4993316;28;20491;-74
2023/05/08 11:38:22;;;;;;;13.60;11.13;;;19.90;99.90;;;;;;5000774;28;20054;-73
2023/05/08 11:40:59;;;;;;;13.85;10.45;;;19.90;99.90;;;;;;4983729;28;20057;-73
2023/05/08 11:43:26;;;;;;;14.80;10.55;;;20.00;99.90;;;;;;5014681;28;20046;-73
2023/05/08 11:45:53;;;;;;;12.27;9.43;;;20.00;99.90;;;;;;4999303;28;20443;-73
2023/05/08 11:48:19;;;;;;;14.10;11.95;;;20.10;99.90;;;;;;4984748;28;20627;-73
2023/05/08 11:50:45;;;;;;;15.73;13.40;;;20.10;99.90;;;;;;5000008;28;20049;-73
2023/05/08 11:53:12;;;;;;;13.75;12.18;;;20.10;99.90;;;;;;5001900;28;20148;-73
2023/05/08 11:55:38;;;;;;;14.00;11.38;;;20.10;99.90;;;;;;5000538;28;20042;-73
2023/05/08 11:58:16;;;;;;;13.68;10.95;;;20.10;99.90;;;;;;5000174;28;20052;-73
2023/05/08 12:00:44;;;;;;;13.70;10.50;;;20.10;99.90;;;;;;4998735;28;20053;-73
2023/05/08 12:03:17;;;;;;;17.60;11.02;;;20.20;99.90;;;;;;4984635;28;20586;-72
2023/05/08 12:05:44;;;;;;;15.05;11.63;;;20.20;99.90;;;;;;5000212;28;20058;-72
2023/05/08 12:08:11;;;;;;;15.25;12.20;;;20.20;99.90;;;;;;4985313;28;20764;-73
2023/05/08 12:10:50;;;;;;;14.45;11.02;;;20.30;99.90;;;;;;4982495;28;20140;-73
2023/05/08 12:13:24;;;;;;;13.50;11.93;;;20.40;99.90;;;;;;4999104;28;20050;-73
2023/05/08 12:16:00;;;;;;;13.50;10.15;;;20.50;99.90;;;;;;5002287;28;20156;-80
2023/05/08 12:18:27;;;;;;;14.50;11.60;;;20.50;99.90;;;;;;4985737;28;20050;-80
2023/05/08 12:20:58;;;;;;;14.48;12.02;;;20.50;99.90;;;;;;5001531;28;20054;-80
2023/05/08 12:23:28;;;;;;;14.40;12.27;;;20.60;99.90;;;;;;4986556;28;20046;-80
2023/05/08 12:25:57;;;;;;;17.92;11.85;;;20.60;99.90;;;;;;4998578;28;20041;-80
2023/05/08 12:28:23;;;;;;;17.23;12.60;;;20.70;99.90;;;;;;5003261;28;20729;-81
2023/05/08 12:30:49;;;;;;;14.05;11.80;;;20.80;99.90;;;;;;5002296;28;20038;-81
2023/05/08 12:33:15;;;;;;;15.48;11.45;;;20.90;99.90;;;;;;5001724;28;20042;-77
2023/05/08 12:35:42;;;;;;;13.90;11.65;;;21.10;99.90;;;;;;4984971;28;20042;-81
2023/05/08 12:38:09;;;;;;;15.75;13.27;;;21.10;99.90;;;;;;5002577;28;20450;-79
2023/05/08 12:40:43;;;;;;;15.57;12.40;;;21.10;99.90;;;;;;5001032;28;20042;-80